PWSweather.com
Personal Weather Stations
Station Observations
SELSTON
Bracken House, Selston NottinghamGB NG16 6AN

Bracken HouseSelston NottinghamGB NG16 6AN

Lat: 53.070642, Lon: -1.2933

Elevation: 426

Station Type: Davis Vantage Pro 2

http://www.selstonweather.info

Latest ConditionsUpdated 1:52:07 PM GMT Sunday, Jun 16, 2019
Currently Today's Max Today's Min Today's Average
Temperature 60.0°F15.6°C 61.7°F16.5°C 44.6°F7.0°C 51.6°F10.9°C
Dew Point 55.5°F13.1°C 57.8°F14.3°C 42.4°F5.8°C 48.9°F9.4°C
Winds 3.0 mph SW4.8 kmh SW 12.0 mph -19.3 kmh - - 2.7 mph 4.3 kmh
Wind Gusts 15.0 mph24.1 kmh 15.0 mph24.1 kmh - -
Humidity 85% 94% 81% 91%
Pressure 29.88 in1011.9 mb 29.91 in1012.9 mb 29.88 in1011.9 mb -
Precipitation - 0.15 in3.8 mm - -
Hour Temp Dew Point Humidity Winds Wind Gusts Pressure Precip Precip Rate Daily Precip Total
01:52 PM 60.0°F15.6°C 55.5°F13.1°C 85% 3.0 mph SW4.8 kmh SW 15.0 mph24.1 kmh 29.88 in1011.9 mb 0.00 in0.0 mm 0.00 in0.0 mm 0.15 in3.8 mm
01:47 PM 60.2°F15.7°C 55.3°F12.9°C 84% 6.0 mph WSW9.7 kmh WSW 15.0 mph24.1 kmh 29.89 in1012.2 mb 0.00 in0.0 mm 0.00 in0.0 mm 0.15 in3.8 mm
01:42 PM 60.7°F15.9°C 55.5°F13.1°C 83% 3.0 mph SW4.8 kmh SW 15.0 mph24.1 kmh 29.89 in1012.2 mb 0.00 in0.0 mm 0.00 in0.0 mm 0.15 in3.8 mm
01:37 PM 61.3°F16.3°C 55.8°F13.2°C 82% 8.0 mph S12.9 kmh S 15.0 mph24.1 kmh 29.89 in1012.2 mb 0.00 in0.0 mm 0.00 in0.0 mm 0.14 in3.6 mm
01:32 PM 61.7°F16.5°C 57.5°F14.2°C 86% 9.0 mph SSW14.5 kmh SSW 15.0 mph24.1 kmh 29.89 in1012.2 mb 0.00 in0.0 mm 0.00 in0.0 mm 0.14 in3.6 mm
01:27 PM 61.1°F16.2°C 57.8°F14.3°C 89% 10.0 mph SW16.1 kmh SW 13.0 mph20.9 kmh 29.89 in1012.2 mb 0.00 in0.0 mm 0.00 in0.0 mm 0.14 in3.6 mm
01:22 PM 60.4°F15.8°C 57.4°F14.1°C 90% 4.0 mph SSW6.4 kmh SSW 13.0 mph20.9 kmh 29.89 in1012.2 mb 0.03 in0.8 mm 0.00 in0.0 mm 0.14 in3.6 mm
01:17 PM 59.8°F15.4°C 57.2°F14.0°C 91% 7.0 mph S11.3 kmh S 13.0 mph20.9 kmh 29.89 in1012.2 mb 0.05 in1.3 mm 0.00 in0.0 mm 0.14 in3.6 mm
01:12 PM 59.0°F15.0°C 56.1°F13.4°C 90% 7.0 mph SSW11.3 kmh SSW 13.0 mph20.9 kmh 29.89 in1012.2 mb 0.09 in2.3 mm 0.00 in0.0 mm 0.14 in3.6 mm
01:07 PM 59.0°F15.0°C 55.4°F13.0°C 88% 6.0 mph SSW9.7 kmh SSW 9.0 mph14.5 kmh 29.89 in1012.2 mb 0.10 in2.5 mm 0.00 in0.0 mm 0.13 in3.3 mm
01:02 PM 59.4°F15.2°C 55.8°F13.2°C 88% 5.0 mph SE8.0 kmh SE 9.0 mph14.5 kmh 29.89 in1012.2 mb 0.75 in19.1 mm 0.82 in20.8 mm 0.13 in3.3 mm
12:57 PM 59.7°F15.4°C 56.1°F13.4°C 88% 6.0 mph S9.7 kmh S 9.0 mph14.5 kmh 29.89 in1012.2 mb 0.00 in0.0 mm 0.00 in0.0 mm 0.09 in2.3 mm
12:52 PM 59.8°F15.4°C 56.5°F13.6°C 89% 3.0 mph SSW4.8 kmh SSW 9.0 mph14.5 kmh 29.88 in1011.9 mb 0.00 in0.0 mm 0.00 in0.0 mm 0.09 in2.3 mm
12:47 PM 59.5°F15.3°C 56.6°F13.7°C 90% Calm Calm 9.0 mph14.5 kmh 29.89 in1012.2 mb 0.03 in0.8 mm 0.00 in0.0 mm 0.09 in2.3 mm
12:42 PM 59.1°F15.1°C 55.9°F13.3°C 89% 3.0 mph SW4.8 kmh SW 9.0 mph14.5 kmh 29.89 in1012.2 mb 0.05 in1.3 mm 0.00 in0.0 mm 0.09 in2.3 mm
12:37 PM 58.9°F14.9°C 55.3°F12.9°C 88% 6.0 mph S9.7 kmh S 15.0 mph24.1 kmh 29.89 in1012.2 mb 0.08 in2.0 mm 0.00 in0.0 mm 0.09 in2.3 mm
12:32 PM 59.1°F15.1°C 54.6°F12.6°C 85% 3.0 mph S4.8 kmh S 15.0 mph24.1 kmh 29.89 in1012.2 mb 0.60 in15.2 mm 2.28 in57.9 mm 0.09 in2.3 mm
12:27 PM 60.0°F15.6°C 54.5°F12.5°C 82% 2.0 mph SSW3.2 kmh SSW 15.0 mph24.1 kmh 29.89 in1012.2 mb 0.41 in10.4 mm 4.92 in125.0 mm 0.04 in1.0 mm
12:22 PM 60.7°F15.9°C 54.8°F12.7°C 81% 7.0 mph SW11.3 kmh SW 15.0 mph24.1 kmh 29.89 in1012.2 mb 0.00 in0.0 mm 0.00 in0.0 mm 0.02 in0.5 mm
12:17 PM 61.1°F16.2°C 55.2°F12.9°C 81% 7.0 mph SSW11.3 kmh SSW 13.0 mph20.9 kmh 29.89 in1012.2 mb 0.00 in0.0 mm 0.00 in0.0 mm 0.02 in0.5 mm
12:12 PM 61.1°F16.2°C 55.2°F12.9°C 81% 8.0 mph SSW12.9 kmh SSW 13.0 mph20.9 kmh 29.89 in1012.2 mb 0.00 in0.0 mm 0.00 in0.0 mm 0.02 in0.5 mm
12:07 PM 61.1°F16.2°C 55.9°F13.3°C 83% 6.0 mph SSW9.7 kmh SSW 12.0 mph19.3 kmh 29.89 in1012.2 mb 0.00 in0.0 mm 0.00 in0.0 mm 0.02 in0.5 mm
12:02 PM 60.9°F16.1°C 55.7°F13.2°C 83% 12.0 mph S19.3 kmh S 12.0 mph19.3 kmh 29.89 in1012.2 mb 0.00 in0.0 mm 0.00 in0.0 mm 0.02 in0.5 mm
11:57 AM 60.6°F15.9°C 55.4°F13.0°C 83% 4.0 mph S6.4 kmh S 13.0 mph20.9 kmh 29.89 in1012.2 mb 0.00 in0.0 mm 0.00 in0.0 mm 0.02 in0.5 mm
11:52 AM 60.5°F15.8°C 55.0°F12.8°C 82% 3.0 mph SSW4.8 kmh SSW 13.0 mph20.9 kmh 29.89 in1012.2 mb 0.00 in0.0 mm 0.00 in0.0 mm 0.02 in0.5 mm
11:47 AM 60.7°F15.9°C 55.5°F13.1°C 83% 5.0 mph SSE8.0 kmh SSE 13.0 mph20.9 kmh 29.89 in1012.2 mb 0.00 in0.0 mm 0.00 in0.0 mm 0.02 in0.5 mm
11:42 AM 60.4°F15.8°C 56.2°F13.4°C 86% 8.0 mph SSE12.9 kmh SSE 13.0 mph20.9 kmh 29.88 in1011.9 mb 0.00 in0.0 mm 0.00 in0.0 mm 0.02 in0.5 mm
11:37 AM 59.9°F15.5°C 56.3°F13.5°C 88% 4.0 mph S6.4 kmh S 11.0 mph17.7 kmh 29.89 in1012.2 mb 0.00 in0.0 mm 0.00 in0.0 mm 0.02 in0.5 mm
11:32 AM 59.3°F15.2°C 56.1°F13.4°C 89% 7.0 mph S11.3 kmh S 11.0 mph17.7 kmh 29.89 in1012.2 mb 0.00 in0.0 mm 0.00 in0.0 mm 0.02 in0.5 mm
11:27 AM 58.5°F14.7°C 55.0°F12.8°C 88% 7.0 mph SSE11.3 kmh SSE 10.0 mph16.1 kmh 29.89 in1012.2 mb 0.00 in0.0 mm 0.00 in0.0 mm 0.02 in0.5 mm
11:22 AM 58.4°F14.7°C 54.5°F12.5°C 87% 4.0 mph S6.4 kmh S 10.0 mph16.1 kmh 29.89 in1012.2 mb 0.00 in0.0 mm 0.00 in0.0 mm 0.02 in0.5 mm
11:17 AM 58.6°F14.8°C 55.4°F13.0°C 89% 3.0 mph SW4.8 kmh SW 10.0 mph16.1 kmh 29.89 in1012.2 mb 0.00 in0.0 mm 0.00 in0.0 mm 0.02 in0.5 mm
11:12 AM 58.2°F14.6°C 55.3°F12.9°C 90% Calm Calm 10.0 mph16.1 kmh 29.89 in1012.2 mb 0.00 in0.0 mm 0.00 in0.0 mm 0.02 in0.5 mm
11:07 AM 58.3°F14.6°C 56.0°F13.3°C 92% 8.0 mph SW12.9 kmh SW 10.0 mph16.1 kmh 29.89 in1012.2 mb 0.00 in0.0 mm 0.00 in0.0 mm 0.02 in0.5 mm
11:02 AM 58.2°F14.6°C 56.2°F13.4°C 93% Calm Calm 10.0 mph16.1 kmh 29.89 in1012.2 mb 0.00 in0.0 mm 0.00 in0.0 mm 0.02 in0.5 mm
10:57 AM 57.6°F14.2°C 55.6°F13.1°C 93% 6.0 mph S9.7 kmh S 10.0 mph16.1 kmh 29.89 in1012.2 mb 0.00 in0.0 mm 0.00 in0.0 mm 0.02 in0.5 mm
10:52 AM 57.2°F14.0°C 55.2°F12.9°C 93% Calm Calm 10.0 mph16.1 kmh 29.90 in1012.5 mb 0.00 in0.0 mm 0.00 in0.0 mm 0.02 in0.5 mm
10:47 AM 56.9°F13.8°C 55.2°F12.9°C 94% 4.0 mph SSE6.4 kmh SSE 10.0 mph16.1 kmh 29.90 in1012.5 mb 0.00 in0.0 mm 0.00 in0.0 mm 0.02 in0.5 mm
10:42 AM 56.5°F13.6°C 54.8°F12.7°C 94% 7.0 mph SSE11.3 kmh SSE 8.0 mph12.9 kmh 29.90 in1012.5 mb 0.00 in0.0 mm 0.00 in0.0 mm 0.02 in0.5 mm
10:37 AM 55.6°F13.1°C 53.6°F12.0°C 93% 4.0 mph S6.4 kmh S 8.0 mph12.9 kmh 29.90 in1012.5 mb 0.00 in0.0 mm 0.00 in0.0 mm 0.02 in0.5 mm
10:32 AM 55.1°F12.8°C 53.1°F11.7°C 93% 3.0 mph S4.8 kmh S 8.0 mph12.9 kmh 29.90 in1012.5 mb 0.00 in0.0 mm 0.00 in0.0 mm 0.02 in0.5 mm
10:27 AM 55.0°F12.8°C 53.0°F11.7°C 93% 4.0 mph S6.4 kmh S 8.0 mph12.9 kmh 29.90 in1012.5 mb 0.00 in0.0 mm 0.00 in0.0 mm 0.02 in0.5 mm
10:22 AM 54.3°F12.4°C 52.3°F11.3°C 93% 5.0 mph ESE8.0 kmh ESE 8.0 mph12.9 kmh 29.91 in1012.9 mb 0.03 in0.8 mm 0.00 in0.0 mm 0.02 in0.5 mm
10:17 AM 53.9°F12.2°C 51.6°F10.9°C 92% 5.0 mph SE8.0 kmh SE 8.0 mph12.9 kmh 29.91 in1012.9 mb 0.06 in1.5 mm 0.00 in0.0 mm 0.02 in0.5 mm
10:12 AM 53.8°F12.1°C 51.2°F10.7°C 91% 4.0 mph SE6.4 kmh SE 6.0 mph9.7 kmh 29.91 in1012.9 mb 0.08 in2.0 mm 0.96 in24.4 mm 0.02 in0.5 mm
10:07 AM 53.8°F12.1°C 51.2°F10.7°C 91% 2.0 mph SE3.2 kmh SE 7.0 mph11.3 kmh 29.91 in1012.9 mb 0.00 in0.0 mm 0.00 in0.0 mm 0.02 in0.5 mm
10:02 AM 53.7°F12.1°C 51.1°F10.6°C 91% 2.0 mph SE3.2 kmh SE 7.0 mph11.3 kmh 29.91 in1012.9 mb 0.00 in0.0 mm 0.00 in0.0 mm 0.01 in0.3 mm
09:57 AM 53.7°F12.1°C 51.1°F10.6°C 91% 2.0 mph SE3.2 kmh SE 7.0 mph11.3 kmh 29.91 in1012.9 mb 0.00 in0.0 mm 0.00 in0.0 mm 0.01 in0.3 mm
09:52 AM 53.7°F12.1°C 50.8°F10.4°C 90% 2.0 mph SE3.2 kmh SE 7.0 mph11.3 kmh 29.91 in1012.9 mb 0.00 in0.0 mm 0.00 in0.0 mm 0.01 in0.3 mm
09:47 AM 53.7°F12.1°C 50.8°F10.4°C 90% 2.0 mph SSE3.2 kmh SSE 2.0 mph3.2 kmh 29.91 in1012.9 mb 0.00 in0.0 mm 0.00 in0.0 mm 0.01 in0.3 mm
09:42 AM 53.6°F12.0°C 50.7°F10.4°C 90% Calm Calm 7.0 mph11.3 kmh 29.91 in1012.9 mb 0.00 in0.0 mm 0.00 in0.0 mm 0.01 in0.3 mm
09:37 AM 53.7°F12.1°C 50.5°F10.3°C 89% 4.0 mph SSE6.4 kmh SSE 7.0 mph11.3 kmh 29.91 in1012.9 mb 0.00 in0.0 mm 0.00 in0.0 mm 0.00 in0.0 mm
09:32 AM 53.9°F12.2°C 51.0°F10.6°C 90% 6.0 mph S9.7 kmh S 7.0 mph11.3 kmh 29.91 in1012.9 mb 0.00 in0.0 mm 0.00 in0.0 mm 0.00 in0.0 mm
09:27 AM 53.9°F12.2°C 51.0°F10.6°C 90% Calm Calm 11.0 mph17.7 kmh 29.91 in1012.9 mb 0.00 in0.0 mm 0.00 in0.0 mm 0.00 in0.0 mm
09:22 AM 53.7°F12.1°C 50.8°F10.4°C 90% Calm Calm 11.0 mph17.7 kmh 29.91 in1012.9 mb 0.00 in0.0 mm 0.00 in0.0 mm 0.00 in0.0 mm
09:17 AM 53.6°F12.0°C 50.4°F10.2°C 89% Calm Calm 11.0 mph17.7 kmh 29.91 in1012.9 mb 0.00 in0.0 mm 0.00 in0.0 mm 0.00 in0.0 mm
09:12 AM 53.5°F11.9°C 50.3°F10.2°C 89% 9.0 mph S14.5 kmh S 11.0 mph17.7 kmh 29.91 in1012.9 mb 0.00 in0.0 mm 0.00 in0.0 mm 0.00 in0.0 mm
09:07 AM 53.5°F11.9°C 50.3°F10.2°C 89% 6.0 mph SE9.7 kmh SE 11.0 mph17.7 kmh 29.91 in1012.9 mb 0.00 in0.0 mm 0.00 in0.0 mm 0.00 in0.0 mm
09:02 AM 53.5°F11.9°C 50.3°F10.2°C 89% 2.0 mph S3.2 kmh S 11.0 mph17.7 kmh 29.91 in1012.9 mb 0.00 in0.0 mm 0.00 in0.0 mm 0.00 in0.0 mm
08:57 AM 53.5°F11.9°C 50.3°F10.2°C 89% 5.0 mph S8.0 kmh S 11.0 mph17.7 kmh 29.91 in1012.9 mb 0.00 in0.0 mm 0.00 in0.0 mm 0.00 in0.0 mm
08:52 AM 53.5°F11.9°C 50.3°F10.2°C 89% 2.0 mph SE3.2 kmh SE 10.0 mph16.1 kmh 29.91 in1012.9 mb 0.00 in0.0 mm 0.00 in0.0 mm 0.00 in0.0 mm
08:47 AM 53.4°F11.9°C 50.2°F10.1°C 89% 7.0 mph S11.3 kmh S 10.0 mph16.1 kmh 29.90 in1012.5 mb 0.00 in0.0 mm 0.00 in0.0 mm 0.00 in0.0 mm
08:42 AM 53.3°F11.8°C 50.1°F10.1°C 89% 7.0 mph S11.3 kmh S 10.0 mph16.1 kmh 29.91 in1012.9 mb 0.00 in0.0 mm 0.00 in0.0 mm 0.00 in0.0 mm
08:37 AM 53.3°F11.8°C 50.1°F10.1°C 89% 5.0 mph SSW8.0 kmh SSW 9.0 mph14.5 kmh 29.91 in1012.9 mb 0.00 in0.0 mm 0.00 in0.0 mm 0.00 in0.0 mm
08:32 AM 53.3°F11.8°C 50.1°F10.1°C 89% 1.0 mph SE1.6 kmh SE 8.0 mph12.9 kmh 29.91 in1012.9 mb 0.00 in0.0 mm 0.00 in0.0 mm 0.00 in0.0 mm
08:27 AM 53.3°F11.8°C 49.8°F9.9°C 88% 3.0 mph S4.8 kmh S 8.0 mph12.9 kmh 29.91 in1012.9 mb 0.00 in0.0 mm 0.00 in0.0 mm 0.00 in0.0 mm
08:22 AM 53.3°F11.8°C 49.8°F9.9°C 88% 2.0 mph S3.2 kmh S 11.0 mph17.7 kmh 29.91 in1012.9 mb 0.00 in0.0 mm 0.00 in0.0 mm 0.00 in0.0 mm
08:17 AM 53.3°F11.8°C 49.8°F9.9°C 88% 6.0 mph S9.7 kmh S 11.0 mph17.7 kmh 29.91 in1012.9 mb 0.00 in0.0 mm 0.00 in0.0 mm 0.00 in0.0 mm
08:12 AM 53.4°F11.9°C 49.6°F9.8°C 87% 7.0 mph S11.3 kmh S 11.0 mph17.7 kmh 29.91 in1012.9 mb 0.00 in0.0 mm 0.00 in0.0 mm 0.00 in0.0 mm
08:07 AM 53.7°F12.1°C 49.9°F9.9°C 87% 5.0 mph S8.0 kmh S 11.0 mph17.7 kmh 29.91 in1012.9 mb 0.00 in0.0 mm 0.00 in0.0 mm 0.00 in0.0 mm
08:02 AM 53.9°F12.2°C 50.1°F10.1°C 87% 6.0 mph S9.7 kmh S 11.0 mph17.7 kmh 29.91 in1012.9 mb 0.00 in0.0 mm 0.00 in0.0 mm 0.00 in0.0 mm
07:57 AM 54.0°F12.2°C 50.2°F10.1°C 87% Calm Calm 11.0 mph17.7 kmh 29.91 in1012.9 mb 0.00 in0.0 mm 0.00 in0.0 mm 0.00 in0.0 mm
07:52 AM 54.1°F12.3°C 50.3°F10.2°C 87% 6.0 mph SSW9.7 kmh SSW 11.0 mph17.7 kmh 29.91 in1012.9 mb 0.00 in0.0 mm 0.00 in0.0 mm 0.00 in0.0 mm
07:47 AM 54.2°F12.3°C 50.4°F10.2°C 87% Calm Calm 10.0 mph16.1 kmh 29.91 in1012.9 mb 0.00 in0.0 mm 0.00 in0.0 mm 0.00 in0.0 mm
07:42 AM 54.3°F12.4°C 50.8°F10.4°C 88% 6.0 mph SSW9.7 kmh SSW 10.0 mph16.1 kmh 29.91 in1012.9 mb 0.00 in0.0 mm 0.00 in0.0 mm 0.00 in0.0 mm
07:37 AM 54.2°F12.3°C 50.7°F10.4°C 88% 4.0 mph SSE6.4 kmh SSE 10.0 mph16.1 kmh 29.90 in1012.5 mb 0.00 in0.0 mm 0.00 in0.0 mm 0.00 in0.0 mm
07:32 AM 54.2°F12.3°C 51.0°F10.6°C 89% 5.0 mph SSW8.0 kmh SSW 9.0 mph14.5 kmh 29.90 in1012.5 mb 0.00 in0.0 mm 0.00 in0.0 mm 0.00 in0.0 mm
07:27 AM 54.1°F12.3°C 51.2°F10.7°C 90% 7.0 mph S11.3 kmh S 9.0 mph14.5 kmh 29.91 in1012.9 mb 0.00 in0.0 mm 0.00 in0.0 mm 0.00 in0.0 mm
07:22 AM 53.5°F11.9°C 50.9°F10.5°C 91% 4.0 mph SSE6.4 kmh SSE 9.0 mph14.5 kmh 29.91 in1012.9 mb 0.00 in0.0 mm 0.00 in0.0 mm 0.00 in0.0 mm
07:17 AM 52.9°F11.6°C 50.3°F10.2°C 91% 4.0 mph SSE6.4 kmh SSE 11.0 mph17.7 kmh 29.91 in1012.9 mb 0.00 in0.0 mm 0.00 in0.0 mm 0.00 in0.0 mm
07:12 AM 52.5°F11.4°C 49.9°F9.9°C 91% 5.0 mph SW8.0 kmh SW 11.0 mph17.7 kmh 29.91 in1012.9 mb 0.00 in0.0 mm 0.00 in0.0 mm 0.00 in0.0 mm
07:07 AM 52.0°F11.1°C 49.5°F9.7°C 91% 3.0 mph S4.8 kmh S 11.0 mph17.7 kmh 29.90 in1012.5 mb 0.00 in0.0 mm 0.00 in0.0 mm 0.00 in0.0 mm
07:02 AM 52.0°F11.1°C 49.7°F9.8°C 92% 6.0 mph SSW9.7 kmh SSW 11.0 mph17.7 kmh 29.91 in1012.9 mb 0.00 in0.0 mm 0.00 in0.0 mm 0.00 in0.0 mm
06:57 AM 51.8°F11.0°C 49.8°F9.9°C 93% 6.0 mph SSE9.7 kmh SSE 11.0 mph17.7 kmh 29.91 in1012.9 mb 0.00 in0.0 mm 0.00 in0.0 mm 0.00 in0.0 mm
06:52 AM 51.2°F10.7°C 49.0°F9.4°C 92% 5.0 mph S8.0 kmh S 11.0 mph17.7 kmh 29.91 in1012.9 mb 0.00 in0.0 mm 0.00 in0.0 mm 0.00 in0.0 mm
06:47 AM 51.1°F10.6°C 48.9°F9.4°C 92% 3.0 mph SSW4.8 kmh SSW 11.0 mph17.7 kmh 29.91 in1012.9 mb 0.00 in0.0 mm 0.00 in0.0 mm 0.00 in0.0 mm
06:42 AM 51.2°F10.7°C 49.2°F9.6°C 93% 4.0 mph SSW6.4 kmh SSW 8.0 mph12.9 kmh 29.91 in1012.9 mb 0.00 in0.0 mm 0.00 in0.0 mm 0.00 in0.0 mm
06:37 AM 50.9°F10.5°C 48.9°F9.4°C 93% 5.0 mph SSW8.0 kmh SSW 8.0 mph12.9 kmh 29.90 in1012.5 mb 0.00 in0.0 mm 0.00 in0.0 mm 0.00 in0.0 mm
06:32 AM 50.5°F10.3°C 48.6°F9.2°C 93% 1.0 mph SSW1.6 kmh SSW 8.0 mph12.9 kmh 29.90 in1012.5 mb 0.00 in0.0 mm 0.00 in0.0 mm 0.00 in0.0 mm
06:27 AM 50.3°F10.2°C 48.4°F9.1°C 93% 4.0 mph SSE6.4 kmh SSE 8.0 mph12.9 kmh 29.90 in1012.5 mb 0.00 in0.0 mm 0.00 in0.0 mm 0.00 in0.0 mm
06:22 AM 50.2°F10.1°C 48.3°F9.1°C 93% 2.0 mph SE3.2 kmh SE 8.0 mph12.9 kmh 29.90 in1012.5 mb 0.00 in0.0 mm 0.00 in0.0 mm 0.00 in0.0 mm
06:17 AM 50.2°F10.1°C 48.5°F9.2°C 94% 4.0 mph SE6.4 kmh SE 8.0 mph12.9 kmh 29.90 in1012.5 mb 0.00 in0.0 mm 0.00 in0.0 mm 0.00 in0.0 mm
06:12 AM 50.0°F10.0°C 48.3°F9.1°C 94% 5.0 mph S8.0 kmh S 8.0 mph12.9 kmh 29.90 in1012.5 mb 0.00 in0.0 mm 0.00 in0.0 mm 0.00 in0.0 mm
06:07 AM 50.0°F10.0°C 48.3°F9.1°C 94% 2.0 mph SSE3.2 kmh SSE 7.0 mph11.3 kmh 29.90 in1012.5 mb 0.00 in0.0 mm 0.00 in0.0 mm 0.00 in0.0 mm
06:02 AM 49.6°F9.8°C 47.9°F8.8°C 94% 4.0 mph SSE6.4 kmh SSE 7.0 mph11.3 kmh 29.89 in1012.2 mb 0.00 in0.0 mm 0.00 in0.0 mm 0.00 in0.0 mm
05:57 AM 49.4°F9.7°C 47.7°F8.7°C 94% Calm Calm -- 29.89 in1012.2 mb 0.00 in0.0 mm 0.00 in0.0 mm 0.00 in0.0 mm
05:52 AM 49.1°F9.5°C 47.4°F8.6°C 94% 4.0 mph SSE6.4 kmh SSE 4.0 mph6.4 kmh 29.90 in1012.5 mb 0.00 in0.0 mm 0.00 in0.0 mm 0.00 in0.0 mm
05:47 AM 48.7°F9.3°C 47.1°F8.4°C 94% 4.0 mph SSE6.4 kmh SSE 7.0 mph11.3 kmh 29.89 in1012.2 mb 0.00 in0.0 mm 0.00 in0.0 mm 0.00 in0.0 mm
05:42 AM 48.5°F9.2°C 46.9°F8.3°C 94% 2.0 mph SE3.2 kmh SE 4.0 mph6.4 kmh 29.89 in1012.2 mb 0.00 in0.0 mm 0.00 in0.0 mm 0.00 in0.0 mm
05:37 AM 48.2°F9.0°C 46.6°F8.1°C 94% Calm Calm 2.0 mph3.2 kmh 29.89 in1012.2 mb 0.00 in0.0 mm 0.00 in0.0 mm 0.00 in0.0 mm
05:32 AM 47.9°F8.8°C 46.3°F7.9°C 94% 1.0 mph SE1.6 kmh SE 5.0 mph8.0 kmh 29.89 in1012.2 mb 0.00 in0.0 mm 0.00 in0.0 mm 0.00 in0.0 mm
05:27 AM 47.7°F8.7°C 46.1°F7.8°C 94% 5.0 mph SE8.0 kmh SE 7.0 mph11.3 kmh 29.89 in1012.2 mb 0.00 in0.0 mm 0.00 in0.0 mm 0.00 in0.0 mm
05:22 AM 47.4°F8.6°C 45.8°F7.7°C 94% 1.0 mph ESE1.6 kmh ESE 7.0 mph11.3 kmh 29.89 in1012.2 mb 0.00 in0.0 mm 0.00 in0.0 mm 0.00 in0.0 mm
05:17 AM 47.1°F8.4°C 45.5°F7.5°C 94% 4.0 mph ESE6.4 kmh ESE 7.0 mph11.3 kmh 29.89 in1012.2 mb 0.00 in0.0 mm 0.00 in0.0 mm 0.00 in0.0 mm
05:12 AM 46.8°F8.2°C 45.2°F7.3°C 94% 2.0 mph ESE3.2 kmh ESE 7.0 mph11.3 kmh 29.89 in1012.2 mb 0.00 in0.0 mm 0.00 in0.0 mm 0.00 in0.0 mm
05:07 AM 46.5°F8.1°C 44.9°F7.2°C 94% 2.0 mph ESE3.2 kmh ESE 7.0 mph11.3 kmh 29.89 in1012.2 mb 0.00 in0.0 mm 0.00 in0.0 mm 0.00 in0.0 mm
05:02 AM 46.2°F7.9°C 44.3°F6.8°C 93% Calm Calm -- 29.89 in1012.2 mb 0.00 in0.0 mm 0.00 in0.0 mm 0.00 in0.0 mm
04:57 AM 46.0°F7.8°C 44.1°F6.7°C 93% Calm Calm -- 29.89 in1012.2 mb 0.00 in0.0 mm 0.00 in0.0 mm 0.00 in0.0 mm
04:52 AM 45.8°F7.7°C 43.9°F6.6°C 93% Calm Calm 4.0 mph6.4 kmh 29.89 in1012.2 mb 0.00 in0.0 mm 0.00 in0.0 mm 0.00 in0.0 mm
04:47 AM 45.5°F7.5°C 43.6°F6.4°C 93% Calm Calm 2.0 mph3.2 kmh 29.89 in1012.2 mb 0.00 in0.0 mm 0.00 in0.0 mm 0.00 in0.0 mm
04:42 AM 45.3°F7.4°C 43.4°F6.3°C 93% Calm Calm -- 29.89 in1012.2 mb 0.00 in0.0 mm 0.00 in0.0 mm 0.00 in0.0 mm
04:37 AM 45.1°F7.3°C 43.2°F6.2°C 93% Calm Calm -- 29.89 in1012.2 mb 0.00 in0.0 mm 0.00 in0.0 mm 0.00 in0.0 mm
04:32 AM 45.0°F7.2°C 43.1°F6.2°C 93% Calm Calm 1.0 mph1.6 kmh 29.89 in1012.2 mb 0.00 in0.0 mm 0.00 in0.0 mm 0.00 in0.0 mm
04:27 AM 44.9°F7.2°C 43.0°F6.1°C 93% Calm Calm -- 29.89 in1012.2 mb 0.00 in0.0 mm 0.00 in0.0 mm 0.00 in0.0 mm
04:22 AM 44.8°F7.1°C 42.9°F6.1°C 93% Calm Calm -- 29.89 in1012.2 mb 0.00 in0.0 mm 0.00 in0.0 mm 0.00 in0.0 mm
04:17 AM 44.8°F7.1°C 42.9°F6.1°C 93% Calm Calm -- 29.89 in1012.2 mb 0.00 in0.0 mm 0.00 in0.0 mm 0.00 in0.0 mm
04:12 AM 44.7°F7.1°C 42.8°F6.0°C 93% Calm Calm -- 29.89 in1012.2 mb 0.00 in0.0 mm 0.00 in0.0 mm 0.00 in0.0 mm
04:07 AM 44.7°F7.1°C 42.5°F5.8°C 92% Calm Calm -- 29.89 in1012.2 mb 0.00 in0.0 mm 0.00 in0.0 mm 0.00 in0.0 mm
04:02 AM 44.6°F7.0°C 42.4°F5.8°C 92% Calm Calm -- 29.89 in1012.2 mb 0.00 in0.0 mm 0.00 in0.0 mm 0.00 in0.0 mm
03:57 AM 44.7°F7.1°C 42.5°F5.8°C 92% Calm Calm -- 29.89 in1012.2 mb 0.00 in0.0 mm 0.00 in0.0 mm 0.00 in0.0 mm
03:52 AM 44.7°F7.1°C 42.5°F5.8°C 92% Calm Calm -- 29.89 in1012.2 mb 0.00 in0.0 mm 0.00 in0.0 mm 0.00 in0.0 mm
03:47 AM 44.8°F7.1°C 42.6°F5.9°C 92% Calm Calm -- 29.89 in1012.2 mb 0.00 in0.0 mm 0.00 in0.0 mm 0.00 in0.0 mm
03:42 AM 44.9°F7.2°C 42.7°F5.9°C 92% Calm Calm -- 29.89 in1012.2 mb 0.00 in0.0 mm 0.00 in0.0 mm 0.00 in0.0 mm
03:37 AM 44.9°F7.2°C 42.7°F5.9°C 92% Calm Calm -- 29.89 in1012.2 mb 0.00 in0.0 mm 0.00 in0.0 mm 0.00 in0.0 mm
03:32 AM 45.1°F7.3°C 42.9°F6.1°C 92% Calm Calm -- 29.89 in1012.2 mb 0.00 in0.0 mm 0.00 in0.0 mm 0.00 in0.0 mm
03:27 AM 45.1°F7.3°C 42.9°F6.1°C 92% Calm Calm -- 29.89 in1012.2 mb 0.00 in0.0 mm 0.00 in0.0 mm 0.00 in0.0 mm
03:22 AM 45.2°F7.3°C 43.0°F6.1°C 92% Calm Calm -- 29.89 in1012.2 mb 0.00 in0.0 mm 0.00 in0.0 mm 0.00 in0.0 mm
03:17 AM 45.2°F7.3°C 42.7°F5.9°C 91% Calm Calm -- 29.89 in1012.2 mb 0.00 in0.0 mm 0.00 in0.0 mm 0.00 in0.0 mm
03:12 AM 45.4°F7.4°C 42.9°F6.1°C 91% Calm Calm -- 29.89 in1012.2 mb 0.00 in0.0 mm 0.00 in0.0 mm 0.00 in0.0 mm
03:07 AM 45.6°F7.6°C 43.4°F6.3°C 92% Calm Calm -- 29.89 in1012.2 mb 0.00 in0.0 mm 0.00 in0.0 mm 0.00 in0.0 mm
03:02 AM 45.7°F7.6°C 43.2°F6.2°C 91% Calm Calm -- 29.89 in1012.2 mb 0.00 in0.0 mm 0.00 in0.0 mm 0.00 in0.0 mm
02:57 AM 46.0°F7.8°C 43.5°F6.4°C 91% Calm Calm -- 29.89 in1012.2 mb 0.00 in0.0 mm 0.00 in0.0 mm 0.00 in0.0 mm
02:52 AM 46.1°F7.8°C 43.9°F6.6°C 92% Calm Calm -- 29.89 in1012.2 mb 0.00 in0.0 mm 0.00 in0.0 mm 0.00 in0.0 mm
02:47 AM 46.3°F7.9°C 44.1°F6.7°C 92% Calm Calm -- 29.89 in1012.2 mb 0.00 in0.0 mm 0.00 in0.0 mm 0.00 in0.0 mm
02:42 AM 46.4°F8.0°C 44.2°F6.8°C 92% Calm Calm -- 29.88 in1011.9 mb 0.00 in0.0 mm 0.00 in0.0 mm 0.00 in0.0 mm
02:37 AM 46.4°F8.0°C 44.2°F6.8°C 92% Calm Calm -- 29.88 in1011.9 mb 0.00 in0.0 mm 0.00 in0.0 mm 0.00 in0.0 mm
02:32 AM 46.4°F8.0°C 44.2°F6.8°C 92% 2.0 mph SSW3.2 kmh SSW 5.0 mph8.0 kmh 29.88 in1011.9 mb 0.00 in0.0 mm 0.00 in0.0 mm 0.00 in0.0 mm
02:27 AM 46.4°F8.0°C 44.2°F6.8°C 92% Calm Calm 3.0 mph4.8 kmh 29.88 in1011.9 mb 0.00 in0.0 mm 0.00 in0.0 mm 0.00 in0.0 mm
02:22 AM 46.4°F8.0°C 44.2°F6.8°C 92% Calm Calm 3.0 mph4.8 kmh 29.89 in1012.2 mb 0.00 in0.0 mm 0.00 in0.0 mm 0.00 in0.0 mm
02:17 AM 46.5°F8.1°C 44.3°F6.8°C 92% Calm Calm -- 29.89 in1012.2 mb 0.00 in0.0 mm 0.00 in0.0 mm 0.00 in0.0 mm
02:12 AM 46.5°F8.1°C 44.3°F6.8°C 92% Calm Calm 2.0 mph3.2 kmh 29.89 in1012.2 mb 0.00 in0.0 mm 0.00 in0.0 mm 0.00 in0.0 mm
02:07 AM 46.5°F8.1°C 44.3°F6.8°C 92% Calm Calm -- 29.89 in1012.2 mb 0.00 in0.0 mm 0.00 in0.0 mm 0.00 in0.0 mm
02:02 AM 46.6°F8.1°C 44.4°F6.9°C 92% Calm Calm -- 29.88 in1011.9 mb 0.00 in0.0 mm 0.00 in0.0 mm 0.00 in0.0 mm
01:57 AM 46.5°F8.1°C 44.3°F6.8°C 92% Calm Calm -- 29.88 in1011.9 mb 0.00 in0.0 mm 0.00 in0.0 mm 0.00 in0.0 mm
01:52 AM 46.5°F8.1°C 44.3°F6.8°C 92% Calm Calm -- 29.88 in1011.9 mb 0.00 in0.0 mm 0.00 in0.0 mm 0.00 in0.0 mm
01:47 AM 46.4°F8.0°C 44.2°F6.8°C 92% Calm Calm 2.0 mph3.2 kmh 29.88 in1011.9 mb 0.00 in0.0 mm 0.00 in0.0 mm 0.00 in0.0 mm
01:42 AM 46.4°F8.0°C 44.2°F6.8°C 92% Calm Calm -- 29.89 in1012.2 mb 0.00 in0.0 mm 0.00 in0.0 mm 0.00 in0.0 mm
01:37 AM 46.4°F8.0°C 44.2°F6.8°C 92% Calm Calm -- 29.89 in1012.2 mb 0.00 in0.0 mm 0.00 in0.0 mm 0.00 in0.0 mm
01:32 AM 46.5°F8.1°C 44.3°F6.8°C 92% Calm Calm -- 29.88 in1011.9 mb 0.00 in0.0 mm 0.00 in0.0 mm 0.00 in0.0 mm
01:27 AM 46.6°F8.1°C 44.4°F6.9°C 92% Calm Calm -- 29.88 in1011.9 mb 0.00 in0.0 mm 0.00 in0.0 mm 0.00 in0.0 mm
01:22 AM 46.6°F8.1°C 44.4°F6.9°C 92% Calm Calm -- 29.88 in1011.9 mb 0.00 in0.0 mm 0.00 in0.0 mm 0.00 in0.0 mm
01:17 AM 46.6°F8.1°C 44.4°F6.9°C 92% Calm Calm -- 29.89 in1012.2 mb 0.00 in0.0 mm 0.00 in0.0 mm 0.00 in0.0 mm
01:12 AM 46.6°F8.1°C 44.4°F6.9°C 92% Calm Calm -- 29.88 in1011.9 mb 0.00 in0.0 mm 0.00 in0.0 mm 0.00 in0.0 mm
01:07 AM 46.6°F8.1°C 44.4°F6.9°C 92% Calm Calm -- 29.88 in1011.9 mb 0.00 in0.0 mm 0.00 in0.0 mm 0.00 in0.0 mm
01:02 AM 46.5°F8.1°C 44.3°F6.8°C 92% Calm Calm -- 29.88 in1011.9 mb 0.00 in0.0 mm 0.00 in0.0 mm 0.00 in0.0 mm
12:57 AM 46.4°F8.0°C 44.2°F6.8°C 92% Calm Calm -- 29.88 in1011.9 mb 0.00 in0.0 mm 0.00 in0.0 mm 0.00 in0.0 mm
12:52 AM 46.5°F8.1°C 44.3°F6.8°C 92% Calm Calm -- 29.88 in1011.9 mb 0.00 in0.0 mm 0.00 in0.0 mm 0.00 in0.0 mm
12:47 AM 46.6°F8.1°C 44.4°F6.9°C 92% Calm Calm -- 29.88 in1011.9 mb 0.00 in0.0 mm 0.00 in0.0 mm 0.00 in0.0 mm
12:42 AM 46.6°F8.1°C 44.4°F6.9°C 92% Calm Calm -- 29.88 in1011.9 mb 0.00 in0.0 mm 0.00 in0.0 mm 0.00 in0.0 mm
12:37 AM 46.7°F8.2°C 44.5°F6.9°C 92% Calm Calm 3.0 mph4.8 kmh 29.88 in1011.9 mb 0.00 in0.0 mm 0.00 in0.0 mm 0.00 in0.0 mm
12:32 AM 46.7°F8.2°C 44.5°F6.9°C 92% Calm Calm -- 29.88 in1011.9 mb 0.00 in0.0 mm 0.00 in0.0 mm 0.00 in0.0 mm
12:27 AM 46.8°F8.2°C 44.6°F7.0°C 92% Calm Calm -- 29.88 in1011.9 mb 0.00 in0.0 mm 0.00 in0.0 mm 0.00 in0.0 mm
12:22 AM 46.9°F8.3°C 44.7°F7.1°C 92% Calm Calm -- 29.88 in1011.9 mb 0.00 in0.0 mm 0.00 in0.0 mm 0.00 in0.0 mm
12:17 AM 47.1°F8.4°C 44.9°F7.2°C 92% Calm Calm -- 29.88 in1011.9 mb 0.00 in0.0 mm 0.00 in0.0 mm 0.00 in0.0 mm
12:12 AM 47.1°F8.4°C 44.9°F7.2°C 92% 2.0 mph SW3.2 kmh SW 3.0 mph4.8 kmh 29.88 in1011.9 mb 0.00 in0.0 mm 0.00 in0.0 mm 0.00 in0.0 mm
12:07 AM 47.2°F8.4°C 45.0°F7.2°C 92% Calm Calm -- 29.88 in1011.9 mb 0.00 in0.0 mm 0.00 in0.0 mm 0.00 in0.0 mm
12:02 AM 47.3°F8.5°C 45.1°F7.3°C 92% Calm Calm -- 29.88 in1011.9 mb 0.00 in0.0 mm 0.00 in0.0 mm 0.00 in0.0 mm